Time;durP1;ratioP1;P1;durP2;ratioP2;P2;SDS_P1;SDS_P2;PMS_P1;PMS_P2;Temp;Humidity;BMP_temperature;BMP_pressure;BME280_temperature;BME280_humidity;BME280_pressure;Samples;Min_cycle;Max_cycle;Signal;HPM_P1;HPM_P2
2022/02/14 00:01:02;;;;;;;34.80;16.73;;;;;;;;;;4976883;28;20035;-69
2022/02/14 00:03:28;;;;;;;29.97;16.53;;;;;;;;;;4977147;28;20147;-68
2022/02/14 00:05:54;;;;;;;26.57;16.00;;;;;;;;;;4976712;28;20027;-69
2022/02/14 00:08:20;;;;;;;28.03;15.33;;;;;;;;;;4976929;28;20403;-69
2022/02/14 00:10:46;;;;;;;26.70;15.43;;;;;;;;;;4976753;28;20404;-69
2022/02/14 00:13:12;;;;;;;31.23;15.63;;;;;;;;;;4977090;28;20422;-71
2022/02/14 00:15:38;;;;;;;33.43;17.33;;;;;;;;;;4976900;28;20035;-69
2022/02/14 00:18:04;;;;;;;33.57;17.90;;;;;;;;;;4976826;28;20185;-68
2022/02/14 00:20:31;;;;;;;33.40;17.90;;;;;;;;;;4976797;28;20066;-69
2022/02/14 00:22:57;;;;;;;28.70;16.80;;;;;;;;;;4976331;28;20045;-67
2022/02/14 00:25:23;;;;;;;29.90;16.27;;;;;;;;;;4976580;28;20046;-68
2022/02/14 00:27:49;;;;;;;22.30;13.63;;;;;;;;;;4976490;28;20035;-67
2022/02/14 00:30:15;;;;;;;22.47;12.90;;;;;;;;;;4976305;28;20078;-69
2022/02/14 00:32:41;;;;;;;21.03;11.83;;;;;;;;;;4975724;28;20049;-69
2022/02/14 00:35:10;;;;;;;20.53;12.33;;;;;;;;;;4976289;28;20039;-69
2022/02/14 00:37:37;;;;;;;21.13;12.40;;;;;;;;;;4976156;28;20031;-68
2022/02/14 00:40:03;;;;;;;20.53;12.00;;;;;;;;;;4976276;28;20055;-69
2022/02/14 00:42:30;;;;;;;19.63;12.53;;;;;;;;;;4976143;28;20038;-69
2022/02/14 00:44:56;;;;;;;19.93;11.93;;;;;;;;;;4976235;28;20042;-69
2022/02/14 00:47:22;;;;;;;32.37;15.60;;;;;;;;;;4975862;28;20035;-69
2022/02/14 00:49:49;;;;;;;30.00;17.77;;;;;;;;;;4976190;28;20047;-68
2022/02/14 00:52:15;;;;;;;39.57;17.83;;;;;;;;;;4976131;28;20030;-69
2022/02/14 00:54:43;;;;;;;35.53;19.53;;;;;;;;;;4976033;28;20086;-69
2022/02/14 00:57:09;;;;;;;38.67;20.13;;;;;;;;;;4976099;28;20147;-68
2022/02/14 00:59:35;;;;;;;39.73;20.60;;;;;;;;;;4975934;28;20051;-71
2022/02/14 01:02:01;;;;;;;35.83;20.30;;;;;;;;;;4975974;28;20121;-69
2022/02/14 01:04:27;;;;;;;38.03;19.53;;;;;;;;;;4975660;28;20086;-69
2022/02/14 01:06:53;;;;;;;34.00;19.90;;;;;;;;;;4975565;28;20073;-69
2022/02/14 01:09:20;;;;;;;35.80;18.50;;;;;;;;;;4975611;28;20085;-71
2022/02/14 01:11:46;;;;;;;33.77;18.77;;;;;;;;;;4975787;28;20043;-68
2022/02/14 01:14:12;;;;;;;30.17;16.73;;;;;;;;;;4975866;28;20039;-69
2022/02/14 01:16:38;;;;;;;32.93;18.23;;;;;;;;;;4975805;28;20373;-69
2022/02/14 01:19:04;;;;;;;27.93;17.10;;;;;;;;;;4975471;28;20472;-69
2022/02/14 01:21:30;;;;;;;28.13;15.60;;;;;;;;;;4975998;28;20070;-69
2022/02/14 01:23:56;;;;;;;24.17;13.63;;;;;;;;;;4976266;28;20069;-69
2022/02/14 01:26:22;;;;;;;21.83;12.07;;;;;;;;;;4977808;28;20038;-69
2022/02/14 01:28:48;;;;;;;23.13;12.10;;;;;;;;;;4977958;28;20041;-70
2022/02/14 01:31:14;;;;;;;20.77;11.63;;;;;;;;;;4979001;28;20038;-68
2022/02/14 01:33:40;;;;;;;20.93;11.73;;;;;;;;;;4977447;28;20058;-68
2022/02/14 01:36:06;;;;;;;18.97;10.70;;;;;;;;;;4976822;28;20082;-69
2022/02/14 01:38:32;;;;;;;17.60;10.50;;;;;;;;;;4976963;28;20047;-68
2022/02/14 01:40:58;;;;;;;16.03;8.80;;;;;;;;;;4976595;28;20039;-68
2022/02/14 01:43:24;;;;;;;15.63;9.13;;;;;;;;;;4976575;28;20121;-68
2022/02/14 01:45:50;;;;;;;15.07;8.53;;;;;;;;;;4976873;28;20042;-68
2022/02/14 01:48:16;;;;;;;13.13;8.30;;;;;;;;;;4975078;28;20039;-66
2022/02/14 01:50:45;;;;;;;14.90;9.03;;;;;;;;;;4975164;28;20066;-67
2022/02/14 01:53:11;;;;;;;14.93;9.37;;;;;;;;;;4975103;28;20038;-67
2022/02/14 01:55:37;;;;;;;16.73;9.20;;;;;;;;;;4975077;28;20114;-67
2022/02/14 01:58:04;;;;;;;16.43;9.10;;;;;;;;;;4973875;28;20076;-67
2022/02/14 02:00:30;;;;;;;15.63;9.00;;;;;;;;;;4972027;28;20034;-68
2022/02/14 02:02:57;;;;;;;15.50;8.87;;;;;;;;;;4972070;28;20089;-69
2022/02/14 02:05:23;;;;;;;16.63;9.00;;;;;;;;;;4973649;28;20074;-68
2022/02/14 02:07:51;;;;;;;13.50;8.47;;;;;;;;;;4974642;28;20511;-69
2022/02/14 02:10:18;;;;;;;15.20;8.93;;;;;;;;;;4974761;28;20543;-69
2022/02/14 02:12:54;;;;;;;16.13;8.53;;;;;;;;;;4974217;28;20030;-67
2022/02/14 02:15:20;;;;;;;18.07;10.80;;;;;;;;;;4974324;28;20045;-67
2022/02/14 02:17:46;;;;;;;14.47;9.53;;;;;;;;;;4974562;28;20439;-69
2022/02/14 02:20:13;;;;;;;22.77;12.10;;;;;;;;;;4973884;28;20049;-68
2022/02/14 02:22:40;;;;;;;26.83;13.97;;;;;;;;;;4974879;28;20031;-68
2022/02/14 02:25:06;;;;;;;26.50;14.93;;;;;;;;;;4974672;28;20384;-69
2022/02/14 02:27:32;;;;;;;25.63;15.07;;;;;;;;;;4973998;28;20039;-68
2022/02/14 02:30:00;;;;;;;29.67;14.43;;;;;;;;;;4974184;28;20078;-68
2022/02/14 02:32:28;;;;;;;26.17;14.50;;;;;;;;;;4974198;28;20097;-70
2022/02/14 02:34:54;;;;;;;25.57;14.10;;;;;;;;;;4974197;28;20099;-68
2022/02/14 02:37:20;;;;;;;22.23;13.53;;;;;;;;;;4973619;28;20043;-68
2022/02/14 02:39:46;;;;;;;25.00;13.40;;;;;;;;;;4974125;28;20399;-68
2022/02/14 02:42:14;;;;;;;24.40;13.30;;;;;;;;;;4973949;28;20062;-68
2022/02/14 02:44:41;;;;;;;27.07;12.93;;;;;;;;;;4973814;28;20042;-68
2022/02/14 02:47:10;;;;;;;23.17;12.90;;;;;;;;;;4973913;28;20039;-68
2022/02/14 02:49:36;;;;;;;21.87;12.33;;;;;;;;;;4974031;28;20049;-68
2022/02/14 02:52:03;;;;;;;23.43;12.60;;;;;;;;;;4973903;28;20038;-68
2022/02/14 02:54:29;;;;;;;17.77;11.20;;;;;;;;;;4974185;28;20419;-68
2022/02/14 02:56:55;;;;;;;21.13;12.37;;;;;;;;;;4973872;28;20070;-68
2022/02/14 02:59:23;;;;;;;18.57;10.47;;;;;;;;;;4973662;28;20043;-68
2022/02/14 03:01:49;;;;;;;20.07;10.57;;;;;;;;;;4973956;28;20479;-68
2022/02/14 03:04:16;;;;;;;18.57;9.67;;;;;;;;;;4973633;28;20078;-68
2022/02/14 03:06:42;;;;;;;19.27;10.13;;;;;;;;;;4973848;28;20038;-69
2022/02/14 03:09:09;;;;;;;16.23;9.80;;;;;;;;;;4974154;28;20045;-69
2022/02/14 03:11:35;;;;;;;17.73;10.00;;;;;;;;;;4973815;28;20066;-67
2022/02/14 03:14:01;;;;;;;16.33;9.50;;;;;;;;;;4973977;28;20035;-68
2022/02/14 03:16:27;;;;;;;17.30;9.30;;;;;;;;;;4974123;28;20038;-69
2022/02/14 03:18:54;;;;;;;18.83;9.50;;;;;;;;;;4973781;28;20046;-68
2022/02/14 03:21:20;;;;;;;16.93;9.63;;;;;;;;;;4973773;28;20472;-68
2022/02/14 03:23:47;;;;;;;22.77;10.00;;;;;;;;;;4973833;28;20058;-68
2022/02/14 03:26:14;;;;;;;17.07;9.43;;;;;;;;;;4973687;28;20074;-69
2022/02/14 03:28:40;;;;;;;20.10;10.63;;;;;;;;;;4973755;28;20060;-68
2022/02/14 03:31:06;;;;;;;17.43;9.47;;;;;;;;;;4973827;28;20042;-69
2022/02/14 03:33:32;;;;;;;18.60;9.93;;;;;;;;;;4973444;28;20050;-68
2022/02/14 03:35:58;;;;;;;19.20;9.33;;;;;;;;;;4973916;28;20081;-68
2022/02/14 03:38:24;;;;;;;17.77;9.07;;;;;;;;;;4973529;28;20070;-68
2022/02/14 03:40:50;;;;;;;13.80;8.70;;;;;;;;;;4973986;28;20097;-68
2022/02/14 03:43:16;;;;;;;16.40;8.60;;;;;;;;;;4973810;28;20041;-69
2022/02/14 03:45:43;;;;;;;12.70;8.57;;;;;;;;;;4974392;28;20031;-68
2022/02/14 03:48:09;;;;;;;18.43;9.33;;;;;;;;;;4977305;28;20515;-68
2022/02/14 03:50:35;;;;;;;15.13;8.93;;;;;;;;;;4977052;28;20468;-68
2022/02/14 03:53:01;;;;;;;14.83;9.50;;;;;;;;;;4977203;28;20035;-68
2022/02/14 03:55:27;;;;;;;16.37;9.57;;;;;;;;;;4977165;28;20042;-68
2022/02/14 03:57:54;;;;;;;16.50;9.67;;;;;;;;;;4976952;28;20038;-68
2022/02/14 04:00:21;;;;;;;14.03;8.60;;;;;;;;;;4977018;28;20039;-69
2022/02/14 04:02:47;;;;;;;17.13;8.40;;;;;;;;;;4976781;28;20035;-68
2022/02/14 04:05:15;;;;;;;15.67;7.53;;;;;;;;;;4977086;28;20054;-68
2022/02/14 04:07:41;;;;;;;14.67;7.63;;;;;;;;;;4977045;28;20039;-68
2022/02/14 04:10:09;;;;;;;12.43;7.23;;;;;;;;;;4976621;28;20042;-68
2022/02/14 04:12:36;;;;;;;12.13;7.40;;;;;;;;;;4976924;28;20066;-68
2022/02/14 04:15:02;;;;;;;10.27;6.53;;;;;;;;;;4976691;28;20062;-68
2022/02/14 04:17:28;;;;;;;9.97;6.87;;;;;;;;;;4976832;28;20050;-68
2022/02/14 04:19:54;;;;;;;11.73;6.87;;;;;;;;;;4976824;28;20046;-68
2022/02/14 04:22:21;;;;;;;11.10;6.93;;;;;;;;;;4976701;28;20030;-69
2022/02/14 04:24:47;;;;;;;13.50;7.23;;;;;;;;;;4976571;28;20039;-68
2022/02/14 04:27:13;;;;;;;12.20;7.60;;;;;;;;;;4976573;28;20034;-68
2022/02/14 04:29:39;;;;;;;11.37;6.20;;;;;;;;;;4976318;28;20550;-68
2022/02/14 04:32:06;;;;;;;13.23;7.73;;;;;;;;;;4976749;28;20031;-68
2022/02/14 04:34:32;;;;;;;10.30;6.47;;;;;;;;;;4976379;28;20138;-68
2022/02/14 04:36:58;;;;;;;17.17;7.83;;;;;;;;;;4976530;28;20034;-68
2022/02/14 04:39:24;;;;;;;15.70;8.80;;;;;;;;;;4976328;28;20044;-69
2022/02/14 04:41:50;;;;;;;16.30;8.47;;;;;;;;;;4976485;28;20035;-68
2022/02/14 04:44:16;;;;;;;17.30;8.73;;;;;;;;;;4976023;28;20084;-68
2022/02/14 04:46:42;;;;;;;12.13;7.33;;;;;;;;;;4976370;28;20043;-69
2022/02/14 04:49:08;;;;;;;13.73;7.50;;;;;;;;;;4975981;28;20045;-68
2022/02/14 04:51:34;;;;;;;12.80;8.27;;;;;;;;;;4976395;28;20077;-68
2022/02/14 04:54:04;;;;;;;21.03;7.70;;;;;;;;;;4990888;28;20445;-68
2022/02/14 04:56:31;;;;;;;11.97;7.40;;;;;;;;;;4975761;28;20038;-69
2022/02/14 04:58:57;;;;;;;14.60;6.87;;;;;;;;;;4975050;28;20488;-68
2022/02/14 05:01:24;;;;;;;12.23;7.13;;;;;;;;;;4975720;28;20031;-68
2022/02/14 05:03:50;;;;;;;18.40;7.00;;;;;;;;;;4975700;28;20030;-68
2022/02/14 05:06:16;;;;;;;13.80;7.03;;;;;;;;;;4975623;28;20031;-68
2022/02/14 05:08:42;;;;;;;12.37;7.27;;;;;;;;;;4975797;28;20042;-68
2022/02/14 05:11:09;;;;;;;9.03;6.33;;;;;;;;;;4975775;28;20081;-68
2022/02/14 05:13:39;;;;;;;10.80;6.50;;;;;;;;;;4975903;28;20038;-69
2022/02/14 05:16:05;;;;;;;14.73;6.80;;;;;;;;;;4975986;28;20391;-69
2022/02/14 05:18:32;;;;;;;21.73;8.03;;;;;;;;;;4975898;28;20396;-68
2022/02/14 05:20:59;;;;;;;18.80;8.27;;;;;;;;;;4975743;28;20066;-68
2022/02/14 05:23:25;;;;;;;10.20;7.30;;;;;;;;;;4975510;28;20031;-68
2022/02/14 05:25:51;;;;;;;18.33;8.07;;;;;;;;;;4975496;28;20395;-68
2022/02/14 05:28:17;;;;;;;15.43;8.27;;;;;;;;;;4975384;28;20101;-68
2022/02/14 05:30:43;;;;;;;14.00;8.03;;;;;;;;;;4990273;28;20049;-68
2022/02/14 05:33:09;;;;;;;11.27;7.83;;;;;;;;;;4975155;28;20050;-68
2022/02/14 05:35:35;;;;;;;19.60;7.43;;;;;;;;;;4975180;28;20559;-68
2022/02/14 05:38:01;;;;;;;16.33;6.93;;;;;;;;;;4975064;28;20074;-69
2022/02/14 05:40:28;;;;;;;18.90;7.63;;;;;;;;;;4975072;28;20038;-69
2022/02/14 05:42:54;;;;;;;15.30;8.10;;;;;;;;;;4975485;28;20043;-69
2022/02/14 05:45:20;;;;;;;19.93;8.00;;;;;;;;;;4974999;28;20114;-68
2022/02/14 05:47:47;;;;;;;11.37;7.40;;;;;;;;;;4975000;28;20453;-69
2022/02/14 05:50:13;;;;;;;18.37;7.37;;;;;;;;;;4975129;28;20053;-69
2022/02/14 05:52:39;;;;;;;14.30;7.50;;;;;;;;;;4974977;28;20042;-69
2022/02/14 05:55:07;;;;;;;13.00;8.23;;;;;;;;;;4974825;28;20031;-68
2022/02/14 05:57:33;;;;;;;17.23;8.03;;;;;;;;;;4975394;28;20097;-68
2022/02/14 05:59:59;;;;;;;17.07;8.50;;;;;;;;;;4974982;28;20047;-68
2022/02/14 06:02:25;;;;;;;23.53;7.67;;;;;;;;;;4975151;28;20030;-68
2022/02/14 06:04:51;;;;;;;13.13;7.23;;;;;;;;;;4974805;28;20116;-68
2022/02/14 06:07:18;;;;;;;13.53;7.13;;;;;;;;;;4974628;28;20035;-68
2022/02/14 06:09:44;;;;;;;16.37;7.33;;;;;;;;;;4974267;28;20035;-68
2022/02/14 06:12:10;;;;;;;17.93;8.17;;;;;;;;;;4974961;28;20033;-68
2022/02/14 06:14:36;;;;;;;12.67;7.43;;;;;;;;;;4974690;28;20039;-68
2022/02/14 06:17:02;;;;;;;11.90;7.53;;;;;;;;;;4974821;28;20451;-68
2022/02/14 06:19:28;;;;;;;14.40;7.67;;;;;;;;;;4974187;28;20554;-68
2022/02/14 06:21:54;;;;;;;25.33;7.23;;;;;;;;;;4974382;28;20483;-67
2022/02/14 06:24:20;;;;;;;20.23;8.07;;;;;;;;;;4974337;28;20122;-68
2022/02/14 06:26:46;;;;;;;20.67;7.93;;;;;;;;;;4974300;28;20026;-68
2022/02/14 06:29:12;;;;;;;18.13;7.67;;;;;;;;;;4974070;28;20043;-69
2022/02/14 06:31:38;;;;;;;32.33;8.90;;;;;;;;;;4973992;28;20038;-68
2022/02/14 06:34:04;;;;;;;31.10;9.20;;;;;;;;;;4974154;28;20051;-68
2022/02/14 06:36:31;;;;;;;20.90;9.40;;;;;;;;;;4974707;28;20035;-68
2022/02/14 06:38:57;;;;;;;29.07;10.47;;;;;;;;;;4989060;28;20411;-68
2022/02/14 06:41:24;;;;;;;17.30;9.57;;;;;;;;;;4974302;28;20480;-69
2022/02/14 06:43:54;;;;;;;27.97;10.87;;;;;;;;;;4974111;28;20118;-68
2022/02/14 06:46:21;;;;;;;26.83;10.37;;;;;;;;;;4973882;28;20093;-68
2022/02/14 06:48:47;;;;;;;28.73;10.57;;;;;;;;;;4974013;28;20463;-67
2022/02/14 06:51:13;;;;;;;35.80;11.77;;;;;;;;;;4973800;28;20042;-69
2022/02/14 06:53:39;;;;;;;26.70;10.27;;;;;;;;;;4973668;28;20110;-68
2022/02/14 06:56:06;;;;;;;24.33;10.40;;;;;;;;;;4973925;28;20531;-68
2022/02/14 06:58:36;;;;;;;20.17;10.73;;;;;;;;;;4973976;28;20053;-68
2022/02/14 07:01:03;;;;;;;21.13;11.10;;;;;;;;;;4973846;28;20097;-69
2022/02/14 07:03:29;;;;;;;26.00;11.67;;;;;;;;;;4973559;28;20042;-69
2022/02/14 07:05:55;;;;;;;28.43;11.80;;;;;;;;;;4973119;28;20035;-68
2022/02/14 07:08:21;;;;;;;21.53;10.00;;;;;;;;;;4973719;28;20039;-68
2022/02/14 07:10:47;;;;;;;21.03;11.20;;;;;;;;;;4974049;28;20077;-67
2022/02/14 07:13:13;;;;;;;21.77;10.97;;;;;;;;;;4956574;28;20086;-67
2022/02/14 07:15:39;;;;;;;23.87;10.13;;;;;;;;;;4954624;28;20104;-68
2022/02/14 07:18:10;;;;;;;23.77;9.73;;;;;;;;;;4954570;28;20114;-67
2022/02/14 07:20:36;;;;;;;21.57;9.10;;;;;;;;;;4954833;28;20377;-67
2022/02/14 07:23:02;;;;;;;18.07;9.80;;;;;;;;;;4958389;28;20075;-69
2022/02/14 07:25:29;;;;;;;17.17;8.33;;;;;;;;;;4961132;28;20085;-68
2022/02/14 07:27:55;;;;;;;15.10;7.97;;;;;;;;;;4977999;28;20038;-69
2022/02/14 07:30:21;;;;;;;12.93;8.07;;;;;;;;;;4974241;28;20042;-65
2022/02/14 07:32:47;;;;;;;16.20;7.97;;;;;;;;;;4974699;28;20046;-67
2022/02/14 07:35:13;;;;;;;20.93;7.77;;;;;;;;;;4975390;28;20127;-67
2022/02/14 07:37:40;;;;;;;17.70;7.40;;;;;;;;;;4977377;28;20043;-67
2022/02/14 07:40:07;;;;;;;12.23;7.03;;;;;;;;;;4977432;28;20058;-65
2022/02/14 07:42:33;;;;;;;23.03;8.50;;;;;;;;;;4977140;28;20492;-68
2022/02/14 07:45:01;;;;;;;24.97;11.23;;;;;;;;;;4976752;28;20042;-69
2022/02/14 07:47:27;;;;;;;23.33;12.87;;;;;;;;;;4976618;28;20522;-67
2022/02/14 07:49:54;;;;;;;28.13;13.00;;;;;;;;;;4977170;28;20126;-66
2022/02/14 07:52:20;;;;;;;35.57;13.60;;;;;;;;;;4976681;28;20554;-66
2022/02/14 07:54:46;;;;;;;23.60;12.37;;;;;;;;;;4977310;28;20595;-65
2022/02/14 07:57:12;;;;;;;29.43;12.97;;;;;;;;;;4977294;28;20062;-68
2022/02/14 07:59:38;;;;;;;29.10;13.07;;;;;;;;;;4976961;28;20053;-67
2022/02/14 08:02:04;;;;;;;26.30;12.70;;;;;;;;;;4977021;28;20030;-69
2022/02/14 08:04:30;;;;;;;32.00;12.37;;;;;;;;;;4974438;28;20045;-77
2022/02/14 08:06:56;;;;;;;36.17;13.13;;;;;;;;;;4974211;28;20053;-67
2022/02/14 08:09:22;;;;;;;26.13;12.27;;;;;;;;;;4976521;28;20041;-73
2022/02/14 08:11:48;;;;;;;17.67;10.37;;;;;;;;;;4976306;28;20031;-68
2022/02/14 08:14:15;;;;;;;21.60;10.97;;;;;;;;;;4975876;28;20027;-70
2022/02/14 08:16:41;;;;;;;16.80;10.30;;;;;;;;;;4975463;28;20089;-74
2022/02/14 08:19:07;;;;;;;22.00;10.20;;;;;;;;;;4976582;28;20043;-71
2022/02/14 08:21:34;;;;;;;20.83;10.67;;;;;;;;;;4977005;28;20070;-67
2022/02/14 08:24:01;;;;;;;23.57;11.10;;;;;;;;;;4976192;28;20058;-69
2022/02/14 08:26:27;;;;;;;22.40;10.40;;;;;;;;;;4984035;28;20071;-72
2022/02/14 08:28:53;;;;;;;17.07;10.70;;;;;;;;;;4984066;28;20042;-69
2022/02/14 08:31:19;;;;;;;19.13;11.43;;;;;;;;;;4983591;28;20031;-77
2022/02/14 08:33:45;;;;;;;22.53;11.10;;;;;;;;;;4981912;28;20492;-67
2022/02/14 08:36:11;;;;;;;28.30;12.30;;;;;;;;;;4978422;28;20041;-69
2022/02/14 08:38:38;;;;;;;24.43;11.90;;;;;;;;;;4978634;28;20050;-69
2022/02/14 08:41:04;;;;;;;21.77;12.67;;;;;;;;;;4978339;28;20031;-69
2022/02/14 08:43:31;;;;;;;19.27;12.00;;;;;;;;;;4978776;28;20046;-68
2022/02/14 08:45:57;;;;;;;21.90;12.63;;;;;;;;;;4979824;28;20484;-69
2022/02/14 08:48:23;;;;;;;21.33;12.50;;;;;;;;;;4976496;28;20050;-66
2022/02/14 08:50:51;;;;;;;27.17;11.30;;;;;;;;;;4976439;28;20042;-67
2022/02/14 08:53:18;;;;;;;21.13;11.67;;;;;;;;;;4975394;28;20236;-66
2022/02/14 08:55:44;;;;;;;27.10;12.53;;;;;;;;;;4975627;28;20031;-65
2022/02/14 08:58:10;;;;;;;27.60;12.70;;;;;;;;;;4975557;28;20113;-66
2022/02/14 09:00:36;;;;;;;24.30;13.40;;;;;;;;;;4976280;28;20030;-68
2022/02/14 09:03:02;;;;;;;23.67;12.53;;;;;;;;;;4975713;28;20043;-68
2022/02/14 09:05:29;;;;;;;28.97;13.00;;;;;;;;;;4975791;28;20039;-71
2022/02/14 09:07:55;;;;;;;28.77;12.77;;;;;;;;;;4975678;28;20039;-66
2022/02/14 09:10:22;;;;;;;27.80;11.80;;;;;;;;;;4974553;28;20507;-68
2022/02/14 09:12:48;;;;;;;21.17;11.80;;;;;;;;;;4974484;28;20086;-67
2022/02/14 09:15:15;;;;;;;19.27;11.57;;;;;;;;;;4975352;28;20033;-67
2022/02/14 09:17:41;;;;;;;21.00;11.37;;;;;;;;;;4975446;28;20034;-68
2022/02/14 09:20:08;;;;;;;26.07;11.57;;;;;;;;;;4975043;28;20046;-67
2022/02/14 09:22:34;;;;;;;22.13;11.73;;;;;;;;;;4975551;28;20046;-66
2022/02/14 09:25:00;;;;;;;27.80;13.13;;;;;;;;;;4975619;28;20035;-68
2022/02/14 09:27:26;;;;;;;32.30;15.13;;;;;;;;;;4975067;28;20035;-66
2022/02/14 09:29:52;;;;;;;24.70;12.30;;;;;;;;;;4975532;28;20067;-67
2022/02/14 09:32:20;;;;;;;25.93;12.50;;;;;;;;;;4975330;28;20550;-66
2022/02/14 09:34:47;;;;;;;18.40;11.43;;;;;;;;;;4975099;28;20480;-69
2022/02/14 09:37:15;;;;;;;19.70;11.13;;;;;;;;;;4975287;28;20053;-67
2022/02/14 09:39:41;;;;;;;22.40;11.03;;;;;;;;;;4975053;28;20411;-65
2022/02/14 09:42:07;;;;;;;20.47;11.27;;;;;;;;;;4975054;28;20053;-69
2022/02/14 09:44:33;;;;;;;23.47;11.20;;;;;;;;;;4974991;28;20454;-66
2022/02/14 09:46:59;;;;;;;20.93;11.37;;;;;;;;;;4975432;28;20399;-71
2022/02/14 09:49:27;;;;;;;16.77;10.83;;;;;;;;;;4975151;28;20043;-65
2022/02/14 09:51:56;;;;;;;23.87;10.60;;;;;;;;;;4974726;28;20483;-66
2022/02/14 09:54:24;;;;;;;18.63;10.90;;;;;;;;;;4974956;28;20042;-65
2022/02/14 09:56:50;;;;;;;22.67;10.57;;;;;;;;;;4975050;28;20054;-67
2022/02/14 09:59:17;;;;;;;21.17;10.93;;;;;;;;;;4975070;28;20046;-66
2022/02/14 10:01:45;;;;;;;20.20;10.80;;;;;;;;;;4974940;28;20035;-66
2022/02/14 10:04:11;;;;;;;21.33;12.00;;;;;;;;;;4974620;28;20773;-65
2022/02/14 10:06:39;;;;;;;20.13;11.03;;;;;;;;;;4974667;28;20496;-69
2022/02/14 10:09:09;;;;;;;15.37;9.77;;;;;;;;;;4974630;28;20054;-65
2022/02/14 10:11:39;;;;;;;15.13;10.43;;;;;;;;;;4974515;28;20037;-66
2022/02/14 10:14:18;;;;;;;16.87;10.67;;;;;;;;;;4973260;28;20061;-66
2022/02/14 10:17:00;;;;;;;30.33;11.10;;;;;;;;;;4973776;28;20045;-66
2022/02/14 10:19:26;;;;;;;20.50;11.23;;;;;;;;;;4974536;28;20415;-66
2022/02/14 10:21:54;;;;;;;23.53;11.37;;;;;;;;;;4974751;28;20110;-70
2022/02/14 10:24:20;;;;;;;30.53;13.43;;;;;;;;;;4974643;28;20051;-68
2022/02/14 10:26:51;;;;;;;22.60;14.50;;;;;;;;;;4974502;28;20039;-65
2022/02/14 10:29:27;;;;;;;23.90;12.00;;;;;;;;;;4974153;28;20121;-67
2022/02/14 10:32:00;;;;;;;20.73;11.73;;;;;;;;;;4974568;28;20373;-64
2022/02/14 10:34:34;;;;;;;24.00;13.50;;;;;;;;;;4974375;28;20061;-66
2022/02/14 10:37:00;;;;;;;24.37;17.70;;;;;;;;;;4974538;28;20035;-65
2022/02/14 10:39:28;;;;;;;39.23;26.70;;;;;;;;;;4973937;28;20385;-66
2022/02/14 10:42:01;;;;;;;30.00;24.13;;;;;;;;;;4973739;28;20046;-68
2022/02/14 10:47:24;;;;;;;19.77;12.53;;;;;;;;;;4974388;28;20034;-70
2022/02/14 10:50:08;;;;;;;14.90;11.00;;;;;;;;;;4972920;28;20070;-71
2022/02/14 10:52:38;;;;;;;22.47;13.47;;;;;;;;;;4974161;28;20125;-70
2022/02/14 10:55:06;;;;;;;25.83;13.93;;;;;;;;;;4973293;28;20042;-65
2022/02/14 10:57:33;;;;;;;17.87;12.93;;;;;;;;;;4974129;28;20066;-70
2022/02/14 11:00:10;;;;;;;22.70;13.47;;;;;;;;;;4974025;28;20560;-71
2022/02/14 11:02:37;;;;;;;23.87;13.40;;;;;;;;;;4974323;28;20043;-65
2022/02/14 11:05:04;;;;;;;24.67;12.90;;;;;;;;;;4973737;28;20047;-68
2022/02/14 11:07:30;;;;;;;30.97;12.57;;;;;;;;;;4973555;28;20061;-67
2022/02/14 11:09:57;;;;;;;24.60;12.17;;;;;;;;;;4973086;28;20038;-71
2022/02/14 11:12:24;;;;;;;20.70;12.50;;;;;;;;;;4973196;28;20031;-67
2022/02/14 11:14:54;;;;;;;25.00;12.40;;;;;;;;;;4973418;28;20038;-65
2022/02/14 11:17:28;;;;;;;27.03;12.93;;;;;;;;;;4973994;28;20039;-66
2022/02/14 11:19:55;;;;;;;22.73;13.97;;;;;;;;;;4972920;28;20067;-66
2022/02/14 11:22:22;;;;;;;16.57;11.97;;;;;;;;;;4973560;28;20114;-68
2022/02/14 11:24:53;;;;;;;22.77;12.40;;;;;;;;;;4973767;28;20035;-67
2022/02/14 11:27:21;;;;;;;16.37;11.20;;;;;;;;;;4973940;28;20035;-70
2022/02/14 11:29:48;;;;;;;19.10;11.43;;;;;;;;;;4973845;28;20038;-67
2022/02/14 11:32:15;;;;;;;17.50;11.73;;;;;;;;;;4972283;28;20041;-66
2022/02/14 11:34:56;;;;;;;19.83;11.63;;;;;;;;;;4971960;28;20090;-67
2022/02/14 11:37:22;;;;;;;18.77;11.07;;;;;;;;;;4971337;28;20252;-68
2022/02/14 11:39:48;;;;;;;18.60;12.57;;;;;;;;;;4972830;28;20046;-65
2022/02/14 11:42:14;;;;;;;28.87;14.97;;;;;;;;;;4972517;28;20046;-65
2022/02/14 11:44:42;;;;;;;22.97;15.10;;;;;;;;;;4973362;28;20114;-67
2022/02/14 11:47:11;;;;;;;24.03;13.60;;;;;;;;;;4973657;28;20039;-66
2022/02/14 11:49:44;;;;;;;22.27;13.33;;;;;;;;;;4973633;28;20046;-66
2022/02/14 11:52:26;;;;;;;24.50;14.23;;;;;;;;;;4973346;28;20529;-69
2022/02/14 11:54:52;;;;;;;26.37;14.70;;;;;;;;;;4973589;28;20094;-68
2022/02/14 11:57:18;;;;;;;27.80;14.13;;;;;;;;;;4973569;28;20039;-68
2022/02/14 11:59:45;;;;;;;24.47;14.27;;;;;;;;;;4973747;28;20554;-66
2022/02/14 12:02:12;;;;;;;32.27;15.53;;;;;;;;;;4973621;28;20031;-66
2022/02/14 12:04:40;;;;;;;22.20;12.93;;;;;;;;;;4973685;28;20106;-66
2022/02/14 12:07:23;;;;;;;25.43;13.37;;;;;;;;;;4974968;28;20042;-67
2022/02/14 12:09:58;;;;;;;26.93;13.90;;;;;;;;;;4976762;28;20043;-69
2022/02/14 12:12:39;;;;;;;24.07;12.90;;;;;;;;;;4977068;28;20085;-66
2022/02/14 12:20:40;;;;;;;19.33;10.17;;;;;;;;;;4977095;28;20406;-67
2022/02/14 12:23:06;;;;;;;16.63;10.70;;;;;;;;;;4976701;28;20069;-65
2022/02/14 12:25:33;;;;;;;15.37;10.63;;;;;;;;;;4976977;28;20039;-67
2022/02/14 12:27:59;;;;;;;17.53;11.23;;;;;;;;;;4976386;28;20496;-68
2022/02/14 12:30:29;;;;;;;20.70;11.23;;;;;;;;;;4976428;28;20033;-67
2022/02/14 12:33:02;;;;;;;16.67;10.40;;;;;;;;;;4976326;28;20041;-68
2022/02/14 12:35:29;;;;;;;19.47;10.37;;;;;;;;;;4976816;28;20039;-69
2022/02/14 12:37:55;;;;;;;16.10;10.60;;;;;;;;;;4976361;28;20035;-69
2022/02/14 12:40:21;;;;;;;16.80;10.80;;;;;;;;;;4976061;28;20039;-67
2022/02/14 12:42:47;;;;;;;21.53;11.83;;;;;;;;;;4976543;28;20109;-68
2022/02/14 12:45:15;;;;;;;18.93;10.53;;;;;;;;;;4976439;28;20035;-66
2022/02/14 12:47:42;;;;;;;18.70;10.67;;;;;;;;;;4976163;28;20066;-67
2022/02/14 12:50:09;;;;;;;17.77;11.27;;;;;;;;;;4975104;28;20027;-66
2022/02/14 12:52:36;;;;;;;20.83;11.23;;;;;;;;;;4967017;28;20027;-70
2022/02/14 12:55:03;;;;;;;17.73;11.50;;;;;;;;;;4966525;28;20040;-66
2022/02/14 12:57:36;;;;;;;19.47;12.00;;;;;;;;;;4969892;28;20030;-68
2022/02/14 13:00:03;;;;;;;20.25;12.88;;;;;;;;;;4975867;28;20057;-69
2022/02/14 13:02:29;;;;;;;17.83;12.13;;;;;;;;;;4974649;28;20170;-66
2022/02/14 13:04:55;;;;;;;14.00;10.33;;;;;;;;;;4975813;28;20066;-69
2022/02/14 13:07:21;;;;;;;19.53;11.10;;;;;;;;;;4975645;28;20046;-67
2022/02/14 13:09:47;;;;;;;15.20;10.10;;;;;;;;;;4975469;28;20515;-66
2022/02/14 13:12:15;;;;;;;15.47;10.73;;;;;;;;;;4975525;28;20399;-67
2022/02/14 13:14:47;;;;;;;17.03;11.20;;;;;;;;;;4975598;28;20034;-67
2022/02/14 13:17:13;;;;;;;14.80;10.73;;;;;;;;;;4975400;28;20038;-67
2022/02/14 13:19:49;;;;;;;15.27;10.83;;;;;;;;;;4974178;28;20046;-69
2022/02/14 13:22:25;;;;;;;18.77;13.03;;;;;;;;;;4975433;28;20476;-66
2022/02/14 13:24:52;;;;;;;18.97;13.03;;;;;;;;;;4975377;28;20090;-68
2022/02/14 13:27:22;;;;;;;21.27;14.00;;;;;;;;;;4975305;28;20073;-67
2022/02/14 13:29:51;;;;;;;22.43;14.53;;;;;;;;;;4975213;28;20043;-66
2022/02/14 13:32:18;;;;;;;20.03;14.73;;;;;;;;;;4974715;28;20102;-67
2022/02/14 13:35:11;;;;;;;21.63;14.70;;;;;;;;;;4974754;28;20082;-68
2022/02/14 13:37:38;;;;;;;20.73;15.47;;;;;;;;;;4975032;28;20437;-69
2022/02/14 13:40:19;;;;;;;21.53;14.20;;;;;;;;;;4974841;28;20289;-69
2022/02/14 13:42:45;;;;;;;22.63;13.13;;;;;;;;;;4975057;28;20070;-68
2022/02/14 13:45:11;;;;;;;22.83;13.77;;;;;;;;;;4974981;28;20510;-67
2022/02/14 13:47:37;;;;;;;19.87;12.10;;;;;;;;;;4974911;28;20487;-67
2022/02/14 13:50:22;;;;;;;18.20;11.90;;;;;;;;;;4974948;28;20129;-67
2022/02/14 13:52:49;;;;;;;16.27;12.03;;;;;;;;;;4974817;28;20066;-69
2022/02/14 13:55:22;;;;;;;20.67;13.13;;;;;;;;;;4964167;28;20047;-68
2022/02/14 13:57:49;;;;;;;;;;;;;;;;;;4955757;28;20524;-67
2022/02/14 14:00:35;;;;;;;17.77;12.40;;;;;;;;;;4955367;28;19954;-66
2022/02/14 14:03:02;;;;;;;19.53;11.90;;;;;;;;;;4948629;28;20031;-69
2022/02/14 14:05:35;;;;;;;29.23;16.37;;;;;;;;;;4955719;28;20102;-68
2022/02/14 14:08:01;;;;;;;15.40;11.47;;;;;;;;;;4955317;28;20073;-68
2022/02/14 14:10:44;;;;;;;14.47;11.10;;;;;;;;;;4954972;28;20449;-68
2022/02/14 14:13:12;;;;;;;16.65;12.50;;;;;;;;;;4955406;28;20050;-67
2022/02/14 14:15:38;;;;;;;17.40;12.70;;;;;;;;;;4954867;28;20039;-67
2022/02/14 14:18:05;;;;;;;18.10;13.70;;;;;;;;;;4955285;28;20114;-68
2022/02/14 14:20:31;;;;;;;20.20;13.73;;;;;;;;;;4955353;28;20047;-68
2022/02/14 14:22:57;;;;;;;24.63;14.90;;;;;;;;;;4955083;28;20066;-66
2022/02/14 14:25:24;;;;;;;18.67;13.87;;;;;;;;;;4955030;28;20118;-66
2022/02/14 14:27:51;;;;;;;34.23;19.07;;;;;;;;;;4955017;28;20039;-67
2022/02/14 14:30:19;;;;;;;42.63;22.33;;;;;;;;;;4954984;28;20035;-68